sensor_id;sensor_type;location;lat;lon;timestamp;P1;durP1;ratioP1;P2;durP2;ratioP2
41219;SDS011;26951;47.338;9.196;2023-07-29T00:01:41;3.00;;;2.47;;
41219;SDS011;26951;47.338;9.196;2023-07-29T00:04:25;2.90;;;1.90;;
41219;SDS011;26951;47.338;9.196;2023-07-29T00:07:09;3.72;;;2.15;;
41219;SDS011;26951;47.338;9.196;2023-07-29T00:09:53;2.45;;;2.00;;
41219;SDS011;26951;47.338;9.196;2023-07-29T00:12:37;3.03;;;2.30;;
41219;SDS011;26951;47.338;9.196;2023-07-29T00:15:21;2.90;;;2.40;;
41219;SDS011;26951;47.338;9.196;2023-07-29T00:18:06;2.38;;;2.13;;
41219;SDS011;26951;47.338;9.196;2023-07-29T00:20:50;2.05;;;1.80;;
41219;SDS011;26951;47.338;9.196;2023-07-29T00:23:34;2.42;;;2.17;;
41219;SDS011;26951;47.338;9.196;2023-07-29T00:26:18;2.67;;;2.40;;
41219;SDS011;26951;47.338;9.196;2023-07-29T00:29:02;2.55;;;2.35;;
41219;SDS011;26951;47.338;9.196;2023-07-29T00:31:46;3.30;;;2.25;;
41219;SDS011;26951;47.338;9.196;2023-07-29T00:34:30;2.97;;;2.17;;
41219;SDS011;26951;47.338;9.196;2023-07-29T00:37:14;2.95;;;2.28;;
41219;SDS011;26951;47.338;9.196;2023-07-29T00:39:58;3.03;;;2.05;;
41219;SDS011;26951;47.338;9.196;2023-07-29T00:42:42;3.22;;;2.20;;
41219;SDS011;26951;47.338;9.196;2023-07-29T00:45:26;3.75;;;2.42;;
41219;SDS011;26951;47.338;9.196;2023-07-29T00:48:12;3.55;;;2.15;;
41219;SDS011;26951;47.338;9.196;2023-07-29T00:50:57;2.85;;;2.55;;
41219;SDS011;26951;47.338;9.196;2023-07-29T00:53:41;3.90;;;2.35;;
41219;SDS011;26951;47.338;9.196;2023-07-29T00:56:25;3.33;;;2.50;;
41219;SDS011;26951;47.338;9.196;2023-07-29T00:59:09;3.35;;;2.55;;
41219;SDS011;26951;47.338;9.196;2023-07-29T01:02:03;3.25;;;2.40;;
41219;SDS011;26951;47.338;9.196;2023-07-29T01:04:52;3.42;;;2.30;;
41219;SDS011;26951;47.338;9.196;2023-07-29T01:07:47;3.15;;;2.35;;
41219;SDS011;26951;47.338;9.196;2023-07-29T01:13:43;6.30;;;3.15;;
41219;SDS011;26951;47.338;9.196;2023-07-29T01:16:38;3.35;;;2.90;;
41219;SDS011;26951;47.338;9.196;2023-07-29T01:22:33;2.75;;;2.38;;
41219;SDS011;26951;47.338;9.196;2023-07-29T01:25:19;4.20;;;2.47;;
41219;SDS011;26951;47.338;9.196;2023-07-29T01:28:03;4.28;;;2.72;;
41219;SDS011;26951;47.338;9.196;2023-07-29T01:30:48;3.95;;;2.78;;
41219;SDS011;26951;47.338;9.196;2023-07-29T01:33:35;3.65;;;3.05;;
41219;SDS011;26951;47.338;9.196;2023-07-29T01:36:27;4.68;;;2.80;;
41219;SDS011;26951;47.338;9.196;2023-07-29T01:39:14;3.03;;;2.60;;
41219;SDS011;26951;47.338;9.196;2023-07-29T01:41:59;4.10;;;2.75;;
41219;SDS011;26951;47.338;9.196;2023-07-29T01:44:44;2.28;;;2.03;;
41219;SDS011;26951;47.338;9.196;2023-07-29T01:47:28;4.00;;;2.55;;
41219;SDS011;26951;47.338;9.196;2023-07-29T01:50:12;3.47;;;2.78;;
41219;SDS011;26951;47.338;9.196;2023-07-29T01:52:56;3.35;;;3.00;;
41219;SDS011;26951;47.338;9.196;2023-07-29T01:55:42;3.03;;;2.40;;
41219;SDS011;26951;47.338;9.196;2023-07-29T01:58:26;7.00;;;2.80;;
41219;SDS011;26951;47.338;9.196;2023-07-29T02:01:10;3.65;;;2.83;;
41219;SDS011;26951;47.338;9.196;2023-07-29T02:03:54;3.08;;;2.70;;
41219;SDS011;26951;47.338;9.196;2023-07-29T02:06:41;3.72;;;2.97;;
41219;SDS011;26951;47.338;9.196;2023-07-29T02:09:25;3.08;;;2.70;;
41219;SDS011;26951;47.338;9.196;2023-07-29T02:12:09;3.58;;;2.90;;
41219;SDS011;26951;47.338;9.196;2023-07-29T02:14:53;3.78;;;2.80;;
41219;SDS011;26951;47.338;9.196;2023-07-29T02:17:39;4.35;;;2.88;;
41219;SDS011;26951;47.338;9.196;2023-07-29T02:20:25;4.63;;;3.10;;
41219;SDS011;26951;47.338;9.196;2023-07-29T02:23:09;3.97;;;3.05;;
41219;SDS011;26951;47.338;9.196;2023-07-29T02:25:53;4.32;;;2.92;;
41219;SDS011;26951;47.338;9.196;2023-07-29T02:28:37;3.95;;;2.75;;
41219;SDS011;26951;47.338;9.196;2023-07-29T02:31:22;4.05;;;3.38;;
41219;SDS011;26951;47.338;9.196;2023-07-29T02:34:07;3.90;;;3.00;;
41219;SDS011;26951;47.338;9.196;2023-07-29T02:36:52;4.75;;;3.25;;
41219;SDS011;26951;47.338;9.196;2023-07-29T02:39:36;3.92;;;3.13;;
41219;SDS011;26951;47.338;9.196;2023-07-29T02:42:20;3.83;;;3.38;;
41219;SDS011;26951;47.338;9.196;2023-07-29T02:45:05;4.32;;;3.42;;
41219;SDS011;26951;47.338;9.196;2023-07-29T02:47:52;4.07;;;2.83;;
41219;SDS011;26951;47.338;9.196;2023-07-29T02:50:37;3.80;;;3.25;;
41219;SDS011;26951;47.338;9.196;2023-07-29T02:53:21;3.97;;;3.28;;
41219;SDS011;26951;47.338;9.196;2023-07-29T02:56:06;3.70;;;3.05;;
41219;SDS011;26951;47.338;9.196;2023-07-29T02:58:53;4.53;;;3.22;;
41219;SDS011;26951;47.338;9.196;2023-07-29T03:01:37;3.80;;;3.22;;
41219;SDS011;26951;47.338;9.196;2023-07-29T03:04:21;3.38;;;2.67;;
41219;SDS011;26951;47.338;9.196;2023-07-29T03:07:05;3.08;;;2.78;;
41219;SDS011;26951;47.338;9.196;2023-07-29T03:09:49;3.38;;;2.92;;
41219;SDS011;26951;47.338;9.196;2023-07-29T03:12:33;4.90;;;3.03;;
41219;SDS011;26951;47.338;9.196;2023-07-29T03:15:17;4.07;;;3.15;;
41219;SDS011;26951;47.338;9.196;2023-07-29T03:18:01;4.68;;;3.13;;
41219;SDS011;26951;47.338;9.196;2023-07-29T03:20:47;3.92;;;3.38;;
41219;SDS011;26951;47.338;9.196;2023-07-29T03:23:33;3.42;;;2.90;;
41219;SDS011;26951;47.338;9.196;2023-07-29T03:26:17;4.68;;;3.30;;
41219;SDS011;26951;47.338;9.196;2023-07-29T03:29:01;3.35;;;3.05;;
41219;SDS011;26951;47.338;9.196;2023-07-29T03:31:46;5.88;;;3.50;;
41219;SDS011;26951;47.338;9.196;2023-07-29T03:34:29;4.13;;;3.53;;
41219;SDS011;26951;47.338;9.196;2023-07-29T03:37:14;6.55;;;4.25;;
41219;SDS011;26951;47.338;9.196;2023-07-29T03:39:58;4.57;;;3.38;;
41219;SDS011;26951;47.338;9.196;2023-07-29T03:42:42;4.47;;;3.15;;
41219;SDS011;26951;47.338;9.196;2023-07-29T03:45:26;4.82;;;3.72;;
41219;SDS011;26951;47.338;9.196;2023-07-29T03:48:10;6.05;;;3.67;;
41219;SDS011;26951;47.338;9.196;2023-07-29T03:50:55;4.63;;;3.47;;
41219;SDS011;26951;47.338;9.196;2023-07-29T03:53:39;3.50;;;3.20;;
41219;SDS011;26951;47.338;9.196;2023-07-29T03:56:23;4.07;;;3.15;;
41219;SDS011;26951;47.338;9.196;2023-07-29T03:59:07;4.45;;;3.20;;
41219;SDS011;26951;47.338;9.196;2023-07-29T04:01:51;5.38;;;3.30;;
41219;SDS011;26951;47.338;9.196;2023-07-29T04:04:35;3.45;;;3.15;;
41219;SDS011;26951;47.338;9.196;2023-07-29T04:07:19;4.45;;;3.53;;
41219;SDS011;26951;47.338;9.196;2023-07-29T04:10:04;4.00;;;3.30;;
41219;SDS011;26951;47.338;9.196;2023-07-29T04:12:49;4.38;;;3.25;;
41219;SDS011;26951;47.338;9.196;2023-07-29T04:15:33;4.93;;;3.85;;
41219;SDS011;26951;47.338;9.196;2023-07-29T04:18:17;5.32;;;3.47;;
41219;SDS011;26951;47.338;9.196;2023-07-29T04:21:01;3.47;;;3.08;;
41219;SDS011;26951;47.338;9.196;2023-07-29T04:23:45;3.65;;;3.17;;
41219;SDS011;26951;47.338;9.196;2023-07-29T04:26:29;4.65;;;3.28;;
41219;SDS011;26951;47.338;9.196;2023-07-29T04:29:14;4.32;;;3.38;;
41219;SDS011;26951;47.338;9.196;2023-07-29T04:31:58;4.15;;;3.53;;
41219;SDS011;26951;47.338;9.196;2023-07-29T04:34:42;4.90;;;3.85;;
41219;SDS011;26951;47.338;9.196;2023-07-29T04:37:26;4.28;;;3.42;;
41219;SDS011;26951;47.338;9.196;2023-07-29T04:40:10;5.57;;;3.40;;
41219;SDS011;26951;47.338;9.196;2023-07-29T04:42:54;5.30;;;3.30;;
41219;SDS011;26951;47.338;9.196;2023-07-29T04:45:42;5.60;;;3.90;;
41219;SDS011;26951;47.338;9.196;2023-07-29T04:48:27;5.57;;;3.60;;
41219;SDS011;26951;47.338;9.196;2023-07-29T04:51:11;4.10;;;3.58;;
41219;SDS011;26951;47.338;9.196;2023-07-29T04:53:55;3.97;;;3.38;;
41219;SDS011;26951;47.338;9.196;2023-07-29T04:56:39;5.35;;;3.97;;
41219;SDS011;26951;47.338;9.196;2023-07-29T04:59:23;4.15;;;3.60;;
41219;SDS011;26951;47.338;9.196;2023-07-29T05:02:07;3.75;;;3.22;;
41219;SDS011;26951;47.338;9.196;2023-07-29T05:04:51;8.18;;;4.80;;
41219;SDS011;26951;47.338;9.196;2023-07-29T05:07:36;4.30;;;3.58;;
41219;SDS011;26951;47.338;9.196;2023-07-29T05:10:20;6.68;;;4.20;;
41219;SDS011;26951;47.338;9.196;2023-07-29T05:13:04;4.80;;;3.83;;
41219;SDS011;26951;47.338;9.196;2023-07-29T05:15:48;6.78;;;4.00;;
41219;SDS011;26951;47.338;9.196;2023-07-29T05:18:33;4.10;;;3.50;;
41219;SDS011;26951;47.338;9.196;2023-07-29T05:21:17;4.70;;;4.05;;
41219;SDS011;26951;47.338;9.196;2023-07-29T05:24:01;3.92;;;3.47;;
41219;SDS011;26951;47.338;9.196;2023-07-29T05:26:45;5.15;;;3.92;;
41219;SDS011;26951;47.338;9.196;2023-07-29T05:29:29;5.18;;;3.85;;
41219;SDS011;26951;47.338;9.196;2023-07-29T05:32:13;4.43;;;3.65;;
41219;SDS011;26951;47.338;9.196;2023-07-29T05:34:57;4.32;;;3.50;;
41219;SDS011;26951;47.338;9.196;2023-07-29T05:37:42;5.55;;;4.18;;
41219;SDS011;26951;47.338;9.196;2023-07-29T05:40:26;4.25;;;3.85;;
41219;SDS011;26951;47.338;9.196;2023-07-29T05:43:10;4.50;;;4.10;;
41219;SDS011;26951;47.338;9.196;2023-07-29T05:45:54;5.55;;;3.80;;
41219;SDS011;26951;47.338;9.196;2023-07-29T05:48:38;4.68;;;3.95;;
41219;SDS011;26951;47.338;9.196;2023-07-29T05:51:22;5.78;;;4.18;;
41219;SDS011;26951;47.338;9.196;2023-07-29T05:54:07;5.78;;;4.35;;
41219;SDS011;26951;47.338;9.196;2023-07-29T05:56:51;5.30;;;4.28;;
41219;SDS011;26951;47.338;9.196;2023-07-29T05:59:35;5.30;;;4.18;;
41219;SDS011;26951;47.338;9.196;2023-07-29T06:02:19;5.68;;;3.85;;
41219;SDS011;26951;47.338;9.196;2023-07-29T06:05:03;5.18;;;4.10;;
41219;SDS011;26951;47.338;9.196;2023-07-29T06:07:47;5.33;;;4.10;;
41219;SDS011;26951;47.338;9.196;2023-07-29T06:10:32;5.87;;;4.10;;
41219;SDS011;26951;47.338;9.196;2023-07-29T06:13:16;5.43;;;3.83;;
41219;SDS011;26951;47.338;9.196;2023-07-29T06:16:00;5.78;;;3.75;;
41219;SDS011;26951;47.338;9.196;2023-07-29T06:18:45;4.47;;;3.80;;
41219;SDS011;26951;47.338;9.196;2023-07-29T06:21:29;5.25;;;4.38;;
41219;SDS011;26951;47.338;9.196;2023-07-29T06:24:14;4.38;;;3.63;;
41219;SDS011;26951;47.338;9.196;2023-07-29T06:26:58;5.32;;;4.15;;
41219;SDS011;26951;47.338;9.196;2023-07-29T06:29:42;5.07;;;4.30;;
41219;SDS011;26951;47.338;9.196;2023-07-29T06:32:26;4.28;;;3.72;;
41219;SDS011;26951;47.338;9.196;2023-07-29T06:35:10;5.05;;;4.00;;
41219;SDS011;26951;47.338;9.196;2023-07-29T06:37:54;3.75;;;3.38;;
41219;SDS011;26951;47.338;9.196;2023-07-29T06:40:39;4.25;;;3.63;;
41219;SDS011;26951;47.338;9.196;2023-07-29T06:43:22;4.68;;;4.00;;
41219;SDS011;26951;47.338;9.196;2023-07-29T06:46:07;4.93;;;4.17;;
41219;SDS011;26951;47.338;9.196;2023-07-29T06:48:51;5.05;;;3.67;;
41219;SDS011;26951;47.338;9.196;2023-07-29T06:51:35;4.30;;;3.88;;
41219;SDS011;26951;47.338;9.196;2023-07-29T06:54:22;4.90;;;3.50;;
41219;SDS011;26951;47.338;9.196;2023-07-29T06:57:08;4.38;;;3.97;;
41219;SDS011;26951;47.338;9.196;2023-07-29T06:59:53;5.60;;;4.10;;
41219;SDS011;26951;47.338;9.196;2023-07-29T07:02:36;5.20;;;3.60;;
41219;SDS011;26951;47.338;9.196;2023-07-29T07:05:21;4.28;;;3.88;;
41219;SDS011;26951;47.338;9.196;2023-07-29T07:08:05;4.72;;;3.92;;
41219;SDS011;26951;47.338;9.196;2023-07-29T07:10:49;5.03;;;4.25;;
41219;SDS011;26951;47.338;9.196;2023-07-29T07:13:33;4.15;;;3.75;;
41219;SDS011;26951;47.338;9.196;2023-07-29T07:16:17;4.53;;;3.67;;
41219;SDS011;26951;47.338;9.196;2023-07-29T07:19:01;4.97;;;4.47;;
41219;SDS011;26951;47.338;9.196;2023-07-29T07:21:46;4.17;;;3.77;;
41219;SDS011;26951;47.338;9.196;2023-07-29T07:24:30;6.00;;;5.00;;
41219;SDS011;26951;47.338;9.196;2023-07-29T07:27:14;4.88;;;4.15;;
41219;SDS011;26951;47.338;9.196;2023-07-29T07:29:58;4.70;;;4.20;;
41219;SDS011;26951;47.338;9.196;2023-07-29T07:32:42;6.03;;;4.50;;
41219;SDS011;26951;47.338;9.196;2023-07-29T07:35:26;7.35;;;4.28;;
41219;SDS011;26951;47.338;9.196;2023-07-29T07:38:10;5.10;;;4.38;;
41219;SDS011;26951;47.338;9.196;2023-07-29T07:40:55;5.78;;;4.60;;
41219;SDS011;26951;47.338;9.196;2023-07-29T07:43:40;6.35;;;4.57;;
41219;SDS011;26951;47.338;9.196;2023-07-29T07:46:25;4.80;;;4.17;;
41219;SDS011;26951;47.338;9.196;2023-07-29T07:49:09;5.35;;;4.70;;
41219;SDS011;26951;47.338;9.196;2023-07-29T07:51:53;5.60;;;5.10;;
41219;SDS011;26951;47.338;9.196;2023-07-29T07:54:37;7.32;;;5.35;;
41219;SDS011;26951;47.338;9.196;2023-07-29T07:57:22;6.70;;;5.30;;
41219;SDS011;26951;47.338;9.196;2023-07-29T08:00:06;6.25;;;5.32;;
41219;SDS011;26951;47.338;9.196;2023-07-29T08:02:50;5.80;;;4.80;;
41219;SDS011;26951;47.338;9.196;2023-07-29T08:05:34;9.65;;;4.85;;
41219;SDS011;26951;47.338;9.196;2023-07-29T08:08:19;6.10;;;5.50;;
41219;SDS011;26951;47.338;9.196;2023-07-29T08:11:03;6.53;;;5.93;;
41219;SDS011;26951;47.338;9.196;2023-07-29T08:13:47;6.60;;;5.63;;
41219;SDS011;26951;47.338;9.196;2023-07-29T08:16:31;9.97;;;6.30;;
41219;SDS011;26951;47.338;9.196;2023-07-29T08:19:16;6.43;;;5.53;;
41219;SDS011;26951;47.338;9.196;2023-07-29T08:22:01;6.18;;;5.50;;
41219;SDS011;26951;47.338;9.196;2023-07-29T08:24:46;6.03;;;5.15;;
41219;SDS011;26951;47.338;9.196;2023-07-29T08:27:32;7.23;;;5.37;;
41219;SDS011;26951;47.338;9.196;2023-07-29T08:30:17;6.18;;;5.32;;
41219;SDS011;26951;47.338;9.196;2023-07-29T08:33:02;6.38;;;5.70;;
41219;SDS011;26951;47.338;9.196;2023-07-29T08:35:47;6.57;;;5.40;;
41219;SDS011;26951;47.338;9.196;2023-07-29T08:38:31;5.80;;;5.30;;
41219;SDS011;26951;47.338;9.196;2023-07-29T08:41:16;6.25;;;5.60;;
41219;SDS011;26951;47.338;9.196;2023-07-29T08:46:54;5.70;;;5.20;;
41219;SDS011;26951;47.338;9.196;2023-07-29T08:49:39;6.47;;;5.15;;
41219;SDS011;26951;47.338;9.196;2023-07-29T08:52:25;6.00;;;5.40;;
41219;SDS011;26951;47.338;9.196;2023-07-29T08:55:10;7.10;;;4.85;;
41219;SDS011;26951;47.338;9.196;2023-07-29T08:57:54;5.60;;;4.80;;
41219;SDS011;26951;47.338;9.196;2023-07-29T09:00:39;7.15;;;4.78;;
41219;SDS011;26951;47.338;9.196;2023-07-29T09:03:23;6.65;;;4.55;;
41219;SDS011;26951;47.338;9.196;2023-07-29T09:06:08;5.03;;;4.40;;
41219;SDS011;26951;47.338;9.196;2023-07-29T09:08:53;5.50;;;4.47;;
41219;SDS011;26951;47.338;9.196;2023-07-29T09:11:39;4.97;;;4.50;;
41219;SDS011;26951;47.338;9.196;2023-07-29T09:14:23;5.72;;;4.57;;
41219;SDS011;26951;47.338;9.196;2023-07-29T09:17:08;5.80;;;4.60;;
41219;SDS011;26951;47.338;9.196;2023-07-29T09:19:53;6.82;;;4.43;;
41219;SDS011;26951;47.338;9.196;2023-07-29T09:22:37;4.60;;;4.13;;
41219;SDS011;26951;47.338;9.196;2023-07-29T09:25:22;5.25;;;4.30;;
41219;SDS011;26951;47.338;9.196;2023-07-29T09:28:12;4.82;;;4.22;;
41219;SDS011;26951;47.338;9.196;2023-07-29T09:30:58;4.85;;;4.30;;
41219;SDS011;26951;47.338;9.196;2023-07-29T09:33:43;4.35;;;3.95;;
41219;SDS011;26951;47.338;9.196;2023-07-29T09:36:28;5.20;;;4.13;;
41219;SDS011;26951;47.338;9.196;2023-07-29T09:39:14;5.47;;;4.50;;
41219;SDS011;26951;47.338;9.196;2023-07-29T09:41:58;5.47;;;4.28;;
41219;SDS011;26951;47.338;9.196;2023-07-29T09:44:42;4.50;;;3.67;;
41219;SDS011;26951;47.338;9.196;2023-07-29T09:47:27;4.00;;;3.60;;
41219;SDS011;26951;47.338;9.196;2023-07-29T09:50:11;5.37;;;4.43;;
41219;SDS011;26951;47.338;9.196;2023-07-29T09:52:55;4.05;;;3.65;;
41219;SDS011;26951;47.338;9.196;2023-07-29T09:55:47;4.95;;;4.45;;
41219;SDS011;26951;47.338;9.196;2023-07-29T09:58:32;5.25;;;4.75;;
41219;SDS011;26951;47.338;9.196;2023-07-29T10:01:17;5.40;;;4.13;;
41219;SDS011;26951;47.338;9.196;2023-07-29T10:04:02;4.40;;;4.00;;
41219;SDS011;26951;47.338;9.196;2023-07-29T10:06:47;4.97;;;4.47;;
41219;SDS011;26951;47.338;9.196;2023-07-29T10:09:31;4.93;;;4.07;;
41219;SDS011;26951;47.338;9.196;2023-07-29T10:12:17;5.03;;;3.95;;
41219;SDS011;26951;47.338;9.196;2023-07-29T10:17:49;4.35;;;3.95;;
41219;SDS011;26951;47.338;9.196;2023-07-29T10:20:35;5.20;;;4.20;;
41219;SDS011;26951;47.338;9.196;2023-07-29T10:23:20;4.45;;;4.05;;
41219;SDS011;26951;47.338;9.196;2023-07-29T10:26:09;4.50;;;3.90;;
41219;SDS011;26951;47.338;9.196;2023-07-29T10:28:54;5.07;;;4.18;;
41219;SDS011;26951;47.338;9.196;2023-07-29T10:31:44;6.18;;;4.03;;
41219;SDS011;26951;47.338;9.196;2023-07-29T10:34:30;5.03;;;3.78;;
41219;SDS011;26951;47.338;9.196;2023-07-29T10:37:15;4.43;;;4.03;;
41219;SDS011;26951;47.338;9.196;2023-07-29T10:40:00;4.88;;;4.20;;
41219;SDS011;26951;47.338;9.196;2023-07-29T10:43:00;5.27;;;4.33;;
41219;SDS011;26951;47.338;9.196;2023-07-29T10:45:46;4.80;;;4.20;;
41219;SDS011;26951;47.338;9.196;2023-07-29T10:54:13;4.85;;;3.90;;
41219;SDS011;26951;47.338;9.196;2023-07-29T10:56:58;4.82;;;4.28;;
41219;SDS011;26951;47.338;9.196;2023-07-29T10:59:53;4.70;;;4.20;;
41219;SDS011;26951;47.338;9.196;2023-07-29T11:02:40;4.45;;;3.88;;
41219;SDS011;26951;47.338;9.196;2023-07-29T11:05:25;5.57;;;4.50;;
41219;SDS011;26951;47.338;9.196;2023-07-29T11:13:47;4.63;;;3.95;;
41219;SDS011;26951;47.338;9.196;2023-07-29T11:16:31;4.82;;;4.22;;
41219;SDS011;26951;47.338;9.196;2023-07-29T11:19:16;4.25;;;3.85;;
41219;SDS011;26951;47.338;9.196;2023-07-29T11:22:03;4.40;;;4.00;;
41219;SDS011;26951;47.338;9.196;2023-07-29T11:24:48;4.78;;;4.13;;
41219;SDS011;26951;47.338;9.196;2023-07-29T11:27:32;4.38;;;3.90;;
41219;SDS011;26951;47.338;9.196;2023-07-29T11:30:16;4.90;;;4.40;;
41219;SDS011;26951;47.338;9.196;2023-07-29T11:33:00;5.60;;;4.35;;
41219;SDS011;26951;47.338;9.196;2023-07-29T11:35:45;4.90;;;4.40;;
41219;SDS011;26951;47.338;9.196;2023-07-29T11:38:29;5.40;;;4.90;;
41219;SDS011;26951;47.338;9.196;2023-07-29T11:41:19;4.88;;;4.30;;
41219;SDS011;26951;47.338;9.196;2023-07-29T11:44:04;4.30;;;3.92;;
41219;SDS011;26951;47.338;9.196;2023-07-29T11:46:53;5.00;;;4.28;;
41219;SDS011;26951;47.338;9.196;2023-07-29T11:49:38;5.63;;;4.33;;
41219;SDS011;26951;47.338;9.196;2023-07-29T11:52:23;4.10;;;3.55;;
41219;SDS011;26951;47.338;9.196;2023-07-29T11:55:08;4.97;;;4.22;;
41219;SDS011;26951;47.338;9.196;2023-07-29T11:57:52;4.30;;;3.90;;
41219;SDS011;26951;47.338;9.196;2023-07-29T12:00:37;5.38;;;4.10;;
41219;SDS011;26951;47.338;9.196;2023-07-29T12:03:22;5.38;;;4.25;;
41219;SDS011;26951;47.338;9.196;2023-07-29T12:06:06;4.43;;;4.03;;
41219;SDS011;26951;47.338;9.196;2023-07-29T12:08:51;5.07;;;4.57;;
41219;SDS011;26951;47.338;9.196;2023-07-29T12:11:36;4.30;;;3.90;;
41219;SDS011;26951;47.338;9.196;2023-07-29T12:14:20;4.95;;;3.92;;
41219;SDS011;26951;47.338;9.196;2023-07-29T12:17:05;4.63;;;4.13;;
41219;SDS011;26951;47.338;9.196;2023-07-29T12:19:53;7.45;;;5.03;;
41219;SDS011;26951;47.338;9.196;2023-07-29T12:22:38;4.45;;;3.97;;
41219;SDS011;26951;47.338;9.196;2023-07-29T12:25:22;9.63;;;4.70;;
41219;SDS011;26951;47.338;9.196;2023-07-29T12:28:07;6.97;;;5.32;;
41219;SDS011;26951;47.338;9.196;2023-07-29T12:30:54;4.87;;;3.53;;
41219;SDS011;26951;47.338;9.196;2023-07-29T12:33:39;5.00;;;3.83;;
41219;SDS011;26951;47.338;9.196;2023-07-29T12:39:31;3.85;;;3.00;;
41219;SDS011;26951;47.338;9.196;2023-07-29T12:42:17;3.65;;;3.03;;
41219;SDS011;26951;47.338;9.196;2023-07-29T12:45:00;4.18;;;3.17;;
41219;SDS011;26951;47.338;9.196;2023-07-29T12:47:45;3.17;;;2.73;;
41219;SDS011;26951;47.338;9.196;2023-07-29T12:50:29;4.07;;;3.15;;
41219;SDS011;26951;47.338;9.196;2023-07-29T12:53:13;4.05;;;2.85;;
41219;SDS011;26951;47.338;9.196;2023-07-29T12:55:57;3.65;;;2.90;;
41219;SDS011;26951;47.338;9.196;2023-07-29T12:58:41;3.17;;;2.60;;
41219;SDS011;26951;47.338;9.196;2023-07-29T13:01:25;3.85;;;2.97;;
41219;SDS011;26951;47.338;9.196;2023-07-29T13:04:10;3.22;;;2.70;;
41219;SDS011;26951;47.338;9.196;2023-07-29T13:06:55;4.28;;;2.92;;
41219;SDS011;26951;47.338;9.196;2023-07-29T13:12:24;3.45;;;2.72;;
41219;SDS011;26951;47.338;9.196;2023-07-29T13:15:08;3.78;;;2.38;;
41219;SDS011;26951;47.338;9.196;2023-07-29T13:17:53;3.40;;;2.37;;
41219;SDS011;26951;47.338;9.196;2023-07-29T13:20:37;4.30;;;2.60;;
41219;SDS011;26951;47.338;9.196;2023-07-29T13:23:21;5.07;;;2.90;;
41219;SDS011;26951;47.338;9.196;2023-07-29T13:26:05;4.78;;;2.80;;
41219;SDS011;26951;47.338;9.196;2023-07-29T13:28:49;2.72;;;2.17;;
41219;SDS011;26951;47.338;9.196;2023-07-29T13:31:33;2.50;;;2.22;;
41219;SDS011;26951;47.338;9.196;2023-07-29T13:34:18;2.63;;;2.30;;
41219;SDS011;26951;47.338;9.196;2023-07-29T13:37:02;3.08;;;2.78;;
41219;SDS011;26951;47.338;9.196;2023-07-29T13:39:47;4.68;;;2.65;;
41219;SDS011;26951;47.338;9.196;2023-07-29T13:42:31;3.13;;;2.45;;
41219;SDS011;26951;47.338;9.196;2023-07-29T13:45:15;2.70;;;2.38;;
41219;SDS011;26951;47.338;9.196;2023-07-29T13:47:59;4.10;;;2.70;;
41219;SDS011;26951;47.338;9.196;2023-07-29T13:50:43;3.22;;;2.60;;
41219;SDS011;26951;47.338;9.196;2023-07-29T13:53:27;3.47;;;2.40;;
41219;SDS011;26951;47.338;9.196;2023-07-29T13:56:12;2.75;;;2.35;;
41219;SDS011;26951;47.338;9.196;2023-07-29T13:58:56;4.75;;;2.38;;
41219;SDS011;26951;47.338;9.196;2023-07-29T14:01:40;4.15;;;2.70;;
41219;SDS011;26951;47.338;9.196;2023-07-29T14:04:24;3.00;;;2.33;;
41219;SDS011;26951;47.338;9.196;2023-07-29T14:07:08;2.93;;;2.60;;
41219;SDS011;26951;47.338;9.196;2023-07-29T14:09:53;4.60;;;2.90;;
41219;SDS011;26951;47.338;9.196;2023-07-29T14:12:37;4.28;;;2.90;;
41219;SDS011;26951;47.338;9.196;2023-07-29T14:15:21;3.42;;;2.90;;
41219;SDS011;26951;47.338;9.196;2023-07-29T14:18:06;3.53;;;2.90;;
41219;SDS011;26951;47.338;9.196;2023-07-29T14:20:50;3.47;;;2.88;;
41219;SDS011;26951;47.338;9.196;2023-07-29T14:23:34;3.08;;;2.78;;
41219;SDS011;26951;47.338;9.196;2023-07-29T14:26:19;3.67;;;3.00;;
41219;SDS011;26951;47.338;9.196;2023-07-29T14:29:03;3.60;;;2.88;;
41219;SDS011;26951;47.338;9.196;2023-07-29T14:31:47;3.47;;;2.85;;
41219;SDS011;26951;47.338;9.196;2023-07-29T14:34:31;5.40;;;3.08;;
41219;SDS011;26951;47.338;9.196;2023-07-29T14:37:15;4.50;;;3.28;;
41219;SDS011;26951;47.338;9.196;2023-07-29T14:39:59;3.20;;;2.90;;
41219;SDS011;26951;47.338;9.196;2023-07-29T14:42:44;4.22;;;3.00;;
41219;SDS011;26951;47.338;9.196;2023-07-29T14:45:28;3.33;;;3.03;;
41219;SDS011;26951;47.338;9.196;2023-07-29T14:48:12;3.88;;;3.10;;
41219;SDS011;26951;47.338;9.196;2023-07-29T14:50:56;4.20;;;3.30;;
41219;SDS011;26951;47.338;9.196;2023-07-29T14:53:41;3.97;;;3.17;;
41219;SDS011;26951;47.338;9.196;2023-07-29T14:56:25;3.75;;;2.70;;
41219;SDS011;26951;47.338;9.196;2023-07-29T14:59:09;4.18;;;3.50;;
41219;SDS011;26951;47.338;9.196;2023-07-29T15:01:53;3.90;;;3.20;;
41219;SDS011;26951;47.338;9.196;2023-07-29T15:04:37;5.05;;;3.08;;
41219;SDS011;26951;47.338;9.196;2023-07-29T15:07:21;4.32;;;2.92;;
41219;SDS011;26951;47.338;9.196;2023-07-29T15:10:05;3.80;;;3.17;;
41219;SDS011;26951;47.338;9.196;2023-07-29T15:12:50;3.95;;;3.15;;
41219;SDS011;26951;47.338;9.196;2023-07-29T15:15:34;3.65;;;2.70;;
41219;SDS011;26951;47.338;9.196;2023-07-29T15:18:18;3.17;;;2.47;;
41219;SDS011;26951;47.338;9.196;2023-07-29T15:21:02;3.00;;;2.70;;
41219;SDS011;26951;47.338;9.196;2023-07-29T15:23:46;3.20;;;2.90;;
41219;SDS011;26951;47.338;9.196;2023-07-29T15:26:30;3.78;;;3.10;;
41219;SDS011;26951;47.338;9.196;2023-07-29T15:29:14;3.67;;;2.83;;
41219;SDS011;26951;47.338;9.196;2023-07-29T15:31:58;5.03;;;2.85;;
41219;SDS011;26951;47.338;9.196;2023-07-29T15:34:43;3.78;;;2.92;;
41219;SDS011;26951;47.338;9.196;2023-07-29T15:37:27;3.08;;;2.75;;
41219;SDS011;26951;47.338;9.196;2023-07-29T15:40:11;3.80;;;2.75;;
41219;SDS011;26951;47.338;9.196;2023-07-29T15:42:55;3.50;;;2.72;;
41219;SDS011;26951;47.338;9.196;2023-07-29T15:45:40;3.43;;;2.93;;
41219;SDS011;26951;47.338;9.196;2023-07-29T15:48:24;3.78;;;2.83;;
41219;SDS011;26951;47.338;9.196;2023-07-29T15:51:08;3.03;;;2.72;;
41219;SDS011;26951;47.338;9.196;2023-07-29T15:53:52;3.00;;;2.70;;
41219;SDS011;26951;47.338;9.196;2023-07-29T15:56:36;6.00;;;2.65;;
41219;SDS011;26951;47.338;9.196;2023-07-29T16:02:09;4.45;;;3.67;;
41219;SDS011;26951;47.338;9.196;2023-07-29T16:04:53;3.38;;;2.80;;
41219;SDS011;26951;47.338;9.196;2023-07-29T16:07:37;3.80;;;2.97;;
41219;SDS011;26951;47.338;9.196;2023-07-29T16:10:22;4.20;;;3.05;;
41219;SDS011;26951;47.338;9.196;2023-07-29T16:13:06;4.07;;;3.70;;
41219;SDS011;26951;47.338;9.196;2023-07-29T16:15:51;4.15;;;3.33;;
41219;SDS011;26951;47.338;9.196;2023-07-29T16:18:35;4.10;;;3.13;;
41219;SDS011;26951;47.338;9.196;2023-07-29T16:21:19;3.40;;;3.10;;
41219;SDS011;26951;47.338;9.196;2023-07-29T16:24:03;3.55;;;3.00;;
41219;SDS011;26951;47.338;9.196;2023-07-29T16:26:47;4.10;;;3.67;;
41219;SDS011;26951;47.338;9.196;2023-07-29T16:29:31;4.50;;;3.20;;
41219;SDS011;26951;47.338;9.196;2023-07-29T16:32:16;4.78;;;3.70;;
41219;SDS011;26951;47.338;9.196;2023-07-29T16:35:01;3.80;;;3.40;;
41219;SDS011;26951;47.338;9.196;2023-07-29T16:37:45;4.25;;;3.22;;
41219;SDS011;26951;47.338;9.196;2023-07-29T16:40:30;4.85;;;3.78;;
41219;SDS011;26951;47.338;9.196;2023-07-29T16:43:13;4.10;;;3.55;;
41219;SDS011;26951;47.338;9.196;2023-07-29T16:45:58;4.60;;;3.80;;
41219;SDS011;26951;47.338;9.196;2023-07-29T16:48:42;3.97;;;3.58;;
41219;SDS011;26951;47.338;9.196;2023-07-29T16:51:26;3.85;;;3.28;;
41219;SDS011;26951;47.338;9.196;2023-07-29T16:54:10;5.45;;;3.45;;
41219;SDS011;26951;47.338;9.196;2023-07-29T16:56:55;4.00;;;3.60;;
41219;SDS011;26951;47.338;9.196;2023-07-29T16:59:39;5.40;;;4.07;;
41219;SDS011;26951;47.338;9.196;2023-07-29T17:02:23;4.32;;;3.80;;
41219;SDS011;26951;47.338;9.196;2023-07-29T17:05:07;3.58;;;3.05;;